sensor_id;sensor_type;location;lat;lon;timestamp;temperature;humidity
3418;DHT22;1722;51.316;12.370;2022-11-15T00:00:13;9.70;88.70
3418;DHT22;1722;51.316;12.370;2022-11-15T00:02:40;9.70;88.30
3418;DHT22;1722;51.316;12.370;2022-11-15T00:05:08;9.70;88.70
3418;DHT22;1722;51.316;12.370;2022-11-15T00:07:36;9.70;88.40
3418;DHT22;1722;51.316;12.370;2022-11-15T00:10:04;9.70;88.50
3418;DHT22;1722;51.316;12.370;2022-11-15T00:12:31;9.70;88.40
3418;DHT22;1722;51.316;12.370;2022-11-15T00:15:00;9.70;88.30
3418;DHT22;1722;51.316;12.370;2022-11-15T00:17:28;9.70;88.30
3418;DHT22;1722;51.316;12.370;2022-11-15T00:19:55;9.70;88.20
3418;DHT22;1722;51.316;12.370;2022-11-15T00:22:23;9.70;88.20
3418;DHT22;1722;51.316;12.370;2022-11-15T00:24:51;9.70;88.50
3418;DHT22;1722;51.316;12.370;2022-11-15T00:27:18;9.70;88.80
3418;DHT22;1722;51.316;12.370;2022-11-15T00:29:46;9.60;88.50
3418;DHT22;1722;51.316;12.370;2022-11-15T00:32:14;9.60;88.90
3418;DHT22;1722;51.316;12.370;2022-11-15T00:34:42;9.60;89.50
3418;DHT22;1722;51.316;12.370;2022-11-15T00:37:09;9.60;90.00
3418;DHT22;1722;51.316;12.370;2022-11-15T00:39:37;9.60;89.20
3418;DHT22;1722;51.316;12.370;2022-11-15T00:42:04;9.60;90.10
3418;DHT22;1722;51.316;12.370;2022-11-15T00:44:32;9.50;90.00
3418;DHT22;1722;51.316;12.370;2022-11-15T00:46:59;9.40;90.40
3418;DHT22;1722;51.316;12.370;2022-11-15T00:49:28;9.40;90.60
3418;DHT22;1722;51.316;12.370;2022-11-15T00:51:56;9.30;90.80
3418;DHT22;1722;51.316;12.370;2022-11-15T00:54:23;9.30;90.80
3418;DHT22;1722;51.316;12.370;2022-11-15T00:56:51;9.30;90.80
3418;DHT22;1722;51.316;12.370;2022-11-15T00:59:18;9.30;90.50
3418;DHT22;1722;51.316;12.370;2022-11-15T01:01:46;9.30;90.60
3418;DHT22;1722;51.316;12.370;2022-11-15T01:04:14;9.30;90.60
3418;DHT22;1722;51.316;12.370;2022-11-15T01:06:43;9.30;90.70
3418;DHT22;1722;51.316;12.370;2022-11-15T01:09:10;9.30;90.60
3418;DHT22;1722;51.316;12.370;2022-11-15T01:11:38;9.30;90.80
3418;DHT22;1722;51.316;12.370;2022-11-15T01:14:05;9.30;90.70
3418;DHT22;1722;51.316;12.370;2022-11-15T01:16:33;9.20;91.00
3418;DHT22;1722;51.316;12.370;2022-11-15T01:19:00;9.10;91.30
3418;DHT22;1722;51.316;12.370;2022-11-15T01:21:28;8.90;91.50
3418;DHT22;1722;51.316;12.370;2022-11-15T01:23:57;8.90;91.40
3418;DHT22;1722;51.316;12.370;2022-11-15T01:26:25;9.00;91.30
3418;DHT22;1722;51.316;12.370;2022-11-15T01:28:52;9.00;91.20
3418;DHT22;1722;51.316;12.370;2022-11-15T01:31:21;9.00;91.40
3418;DHT22;1722;51.316;12.370;2022-11-15T01:33:49;9.00;91.30
3418;DHT22;1722;51.316;12.370;2022-11-15T01:36:18;9.00;91.30
3418;DHT22;1722;51.316;12.370;2022-11-15T01:38:53;9.10;90.90
3418;DHT22;1722;51.316;12.370;2022-11-15T01:41:23;9.20;90.60
3418;DHT22;1722;51.316;12.370;2022-11-15T01:43:53;9.10;91.20
3418;DHT22;1722;51.316;12.370;2022-11-15T01:46:25;9.00;91.30
3418;DHT22;1722;51.316;12.370;2022-11-15T01:48:57;8.90;91.60
3418;DHT22;1722;51.316;12.370;2022-11-15T01:51:27;8.90;91.50
3418;DHT22;1722;51.316;12.370;2022-11-15T01:54:00;8.90;91.50
3418;DHT22;1722;51.316;12.370;2022-11-15T01:56:32;8.90;91.60
3418;DHT22;1722;51.316;12.370;2022-11-15T01:59:04;8.90;91.80
3418;DHT22;1722;51.316;12.370;2022-11-15T02:01:34;8.90;91.70
3418;DHT22;1722;51.316;12.370;2022-11-15T02:04:05;8.90;91.60
3418;DHT22;1722;51.316;12.370;2022-11-15T02:06:35;9.00;91.60
3418;DHT22;1722;51.316;12.370;2022-11-15T02:09:03;9.00;91.20
3418;DHT22;1722;51.316;12.370;2022-11-15T02:11:32;9.00;91.40
3418;DHT22;1722;51.316;12.370;2022-11-15T02:14:01;9.10;91.10
3418;DHT22;1722;51.316;12.370;2022-11-15T02:16:35;9.20;91.00
3418;DHT22;1722;51.316;12.370;2022-11-15T02:19:22;9.20;90.60
3418;DHT22;1722;51.316;12.370;2022-11-15T02:22:05;9.30;90.40
3418;DHT22;1722;51.316;12.370;2022-11-15T02:25:03;9.40;90.30
3418;DHT22;1722;51.316;12.370;2022-11-15T02:27:48;9.40;90.20
3418;DHT22;1722;51.316;12.370;2022-11-15T02:30:24;9.30;90.80
3418;DHT22;1722;51.316;12.370;2022-11-15T02:32:54;9.20;91.00
3418;DHT22;1722;51.316;12.370;2022-11-15T02:35:29;9.10;91.20
3418;DHT22;1722;51.316;12.370;2022-11-15T02:38:07;9.10;91.30
3418;DHT22;1722;51.316;12.370;2022-11-15T02:40:41;9.10;91.00
3418;DHT22;1722;51.316;12.370;2022-11-15T02:43:10;9.20;91.00
3418;DHT22;1722;51.316;12.370;2022-11-15T02:46:01;9.20;90.80
3418;DHT22;1722;51.316;12.370;2022-11-15T02:48:31;9.20;90.90
3418;DHT22;1722;51.316;12.370;2022-11-15T02:51:00;9.20;91.00
3418;DHT22;1722;51.316;12.370;2022-11-15T02:53:28;9.20;91.00
3418;DHT22;1722;51.316;12.370;2022-11-15T02:55:56;9.20;91.10
3418;DHT22;1722;51.316;12.370;2022-11-15T02:58:48;9.10;91.40
3418;DHT22;1722;51.316;12.370;2022-11-15T03:01:29;9.10;91.50
3418;DHT22;1722;51.316;12.370;2022-11-15T03:04:12;9.10;91.30
3418;DHT22;1722;51.316;12.370;2022-11-15T03:06:50;9.00;91.40
3418;DHT22;1722;51.316;12.370;2022-11-15T03:09:28;8.90;91.90
3418;DHT22;1722;51.316;12.370;2022-11-15T03:12:04;9.00;91.70
3418;DHT22;1722;51.316;12.370;2022-11-15T03:14:35;8.90;91.70
3418;DHT22;1722;51.316;12.370;2022-11-15T03:17:13;9.00;91.70
3418;DHT22;1722;51.316;12.370;2022-11-15T03:19:45;9.00;91.50
3418;DHT22;1722;51.316;12.370;2022-11-15T03:22:16;9.10;91.50
3418;DHT22;1722;51.316;12.370;2022-11-15T03:24:45;9.10;91.00
3418;DHT22;1722;51.316;12.370;2022-11-15T03:27:17;9.20;91.00
3418;DHT22;1722;51.316;12.370;2022-11-15T03:29:51;9.20;91.10
3418;DHT22;1722;51.316;12.370;2022-11-15T03:32:26;9.10;91.20
3418;DHT22;1722;51.316;12.370;2022-11-15T03:34:58;9.30;91.00
3418;DHT22;1722;51.316;12.370;2022-11-15T03:37:33;9.30;90.60
3418;DHT22;1722;51.316;12.370;2022-11-15T03:40:03;9.30;90.50
3418;DHT22;1722;51.316;12.370;2022-11-15T03:42:34;9.40;90.40
3418;DHT22;1722;51.316;12.370;2022-11-15T03:45:10;9.40;90.40
3418;DHT22;1722;51.316;12.370;2022-11-15T03:47:43;9.40;90.30
3418;DHT22;1722;51.316;12.370;2022-11-15T03:50:15;9.40;90.40
3418;DHT22;1722;51.316;12.370;2022-11-15T03:52:44;9.40;90.20
3418;DHT22;1722;51.316;12.370;2022-11-15T03:55:16;9.40;90.30
3418;DHT22;1722;51.316;12.370;2022-11-15T03:57:44;9.40;90.20
3418;DHT22;1722;51.316;12.370;2022-11-15T04:00:12;9.40;90.40
3418;DHT22;1722;51.316;12.370;2022-11-15T04:02:41;9.40;90.50
3418;DHT22;1722;51.316;12.370;2022-11-15T04:05:08;9.30;90.70
3418;DHT22;1722;51.316;12.370;2022-11-15T04:07:36;9.40;90.80
3418;DHT22;1722;51.316;12.370;2022-11-15T04:10:04;9.30;90.60
3418;DHT22;1722;51.316;12.370;2022-11-15T04:12:33;9.30;90.70
3418;DHT22;1722;51.316;12.370;2022-11-15T04:15:04;9.30;90.80
3418;DHT22;1722;51.316;12.370;2022-11-15T04:17:36;9.20;91.20
3418;DHT22;1722;51.316;12.370;2022-11-15T04:20:07;9.20;91.30
3418;DHT22;1722;51.316;12.370;2022-11-15T04:22:54;9.10;91.50
3418;DHT22;1722;51.316;12.370;2022-11-15T04:25:39;9.10;91.70
3418;DHT22;1722;51.316;12.370;2022-11-15T04:28:07;9.00;92.10
3418;DHT22;1722;51.316;12.370;2022-11-15T04:30:34;8.80;92.20
3418;DHT22;1722;51.316;12.370;2022-11-15T04:33:02;8.70;92.60
3418;DHT22;1722;51.316;12.370;2022-11-15T04:35:30;8.70;92.50
3418;DHT22;1722;51.316;12.370;2022-11-15T04:37:58;8.80;92.40
3418;DHT22;1722;51.316;12.370;2022-11-15T04:40:25;8.90;92.30
3418;DHT22;1722;51.316;12.370;2022-11-15T04:42:53;8.80;92.40
3418;DHT22;1722;51.316;12.370;2022-11-15T04:45:20;8.80;92.50
3418;DHT22;1722;51.316;12.370;2022-11-15T04:47:48;8.80;92.50
3418;DHT22;1722;51.316;12.370;2022-11-15T04:50:16;8.80;92.50
3418;DHT22;1722;51.316;12.370;2022-11-15T04:52:50;8.90;92.10
3418;DHT22;1722;51.316;12.370;2022-11-15T04:55:18;8.90;92.30
3418;DHT22;1722;51.316;12.370;2022-11-15T04:57:46;8.80;92.50
3418;DHT22;1722;51.316;12.370;2022-11-15T05:00:15;8.80;92.50
3418;DHT22;1722;51.316;12.370;2022-11-15T05:02:43;8.70;92.40
3418;DHT22;1722;51.316;12.370;2022-11-15T05:05:27;8.90;92.10
3418;DHT22;1722;51.316;12.370;2022-11-15T05:07:56;8.80;92.20
3418;DHT22;1722;51.316;12.370;2022-11-15T05:10:24;8.90;91.80
3418;DHT22;1722;51.316;12.370;2022-11-15T05:12:51;9.00;91.60
3418;DHT22;1722;51.316;12.370;2022-11-15T05:15:19;8.90;91.80
3418;DHT22;1722;51.316;12.370;2022-11-15T05:17:46;9.00;91.90
3418;DHT22;1722;51.316;12.370;2022-11-15T05:20:14;8.90;91.90
3418;DHT22;1722;51.316;12.370;2022-11-15T05:22:41;8.90;92.20
3418;DHT22;1722;51.316;12.370;2022-11-15T05:25:10;8.70;92.50
3418;DHT22;1722;51.316;12.370;2022-11-15T05:27:38;8.70;92.50
3418;DHT22;1722;51.316;12.370;2022-11-15T05:30:06;8.70;92.60
3418;DHT22;1722;51.316;12.370;2022-11-15T05:32:34;8.70;92.50
3418;DHT22;1722;51.316;12.370;2022-11-15T05:35:02;8.70;92.70
3418;DHT22;1722;51.316;12.370;2022-11-15T05:37:32;8.70;92.40
3418;DHT22;1722;51.316;12.370;2022-11-15T05:40:00;8.60;92.70
3418;DHT22;1722;51.316;12.370;2022-11-15T05:42:29;8.70;92.30
3418;DHT22;1722;51.316;12.370;2022-11-15T05:44:58;8.70;92.50
3418;DHT22;1722;51.316;12.370;2022-11-15T05:47:28;8.70;92.40
3418;DHT22;1722;51.316;12.370;2022-11-15T05:49:57;8.70;92.60
3418;DHT22;1722;51.316;12.370;2022-11-15T05:52:27;8.60;92.60
3418;DHT22;1722;51.316;12.370;2022-11-15T05:54:56;8.60;92.50
3418;DHT22;1722;51.316;12.370;2022-11-15T05:57:24;8.60;92.70
3418;DHT22;1722;51.316;12.370;2022-11-15T05:59:54;8.70;92.50
3418;DHT22;1722;51.316;12.370;2022-11-15T06:02:21;8.70;92.50
3418;DHT22;1722;51.316;12.370;2022-11-15T06:04:49;8.70;92.40
3418;DHT22;1722;51.316;12.370;2022-11-15T06:07:16;8.70;92.40
3418;DHT22;1722;51.316;12.370;2022-11-15T06:09:44;8.70;92.60
3418;DHT22;1722;51.316;12.370;2022-11-15T06:12:11;8.70;92.30
3418;DHT22;1722;51.316;12.370;2022-11-15T06:14:39;8.60;92.60
3418;DHT22;1722;51.316;12.370;2022-11-15T06:17:08;8.70;92.40
3418;DHT22;1722;51.316;12.370;2022-11-15T06:19:35;8.70;92.60
3418;DHT22;1722;51.316;12.370;2022-11-15T06:22:03;8.80;92.10
3418;DHT22;1722;51.316;12.370;2022-11-15T06:24:30;8.80;91.90
3418;DHT22;1722;51.316;12.370;2022-11-15T06:26:58;8.90;91.70
3418;DHT22;1722;51.316;12.370;2022-11-15T06:29:26;8.90;92.00
3418;DHT22;1722;51.316;12.370;2022-11-15T06:31:53;8.90;91.80
3418;DHT22;1722;51.316;12.370;2022-11-15T06:34:22;8.80;92.10
3418;DHT22;1722;51.316;12.370;2022-11-15T06:36:50;8.70;92.20
3418;DHT22;1722;51.316;12.370;2022-11-15T06:39:17;8.70;91.90
3418;DHT22;1722;51.316;12.370;2022-11-15T06:41:45;8.80;91.80
3418;DHT22;1722;51.316;12.370;2022-11-15T06:44:12;8.90;91.80
3418;DHT22;1722;51.316;12.370;2022-11-15T06:46:40;8.90;91.60
3418;DHT22;1722;51.316;12.370;2022-11-15T06:49:07;8.80;91.80
3418;DHT22;1722;51.316;12.370;2022-11-15T06:51:36;8.90;91.80
3418;DHT22;1722;51.316;12.370;2022-11-15T06:54:04;8.90;91.60
3418;DHT22;1722;51.316;12.370;2022-11-15T06:56:33;8.90;91.50
3418;DHT22;1722;51.316;12.370;2022-11-15T06:59:01;9.00;91.50
3418;DHT22;1722;51.316;12.370;2022-11-15T07:01:28;9.00;91.00
3418;DHT22;1722;51.316;12.370;2022-11-15T07:03:56;9.10;91.10
3418;DHT22;1722;51.316;12.370;2022-11-15T07:06:23;9.10;91.10
3418;DHT22;1722;51.316;12.370;2022-11-15T07:08:52;9.10;91.40
3418;DHT22;1722;51.316;12.370;2022-11-15T07:11:20;9.10;91.10
3418;DHT22;1722;51.316;12.370;2022-11-15T07:13:47;9.10;91.60
3418;DHT22;1722;51.316;12.370;2022-11-15T07:16:15;9.10;91.20
3418;DHT22;1722;51.316;12.370;2022-11-15T07:18:42;9.00;91.60
3418;DHT22;1722;51.316;12.370;2022-11-15T07:21:10;8.90;91.70
3418;DHT22;1722;51.316;12.370;2022-11-15T07:23:39;8.90;91.60
3418;DHT22;1722;51.316;12.370;2022-11-15T07:26:08;8.90;91.80
3418;DHT22;1722;51.316;12.370;2022-11-15T07:28:36;8.90;91.80
3418;DHT22;1722;51.316;12.370;2022-11-15T07:31:04;8.90;91.80
3418;DHT22;1722;51.316;12.370;2022-11-15T07:33:32;9.00;91.50
3418;DHT22;1722;51.316;12.370;2022-11-15T07:36:00;9.00;91.30
3418;DHT22;1722;51.316;12.370;2022-11-15T07:38:29;9.10;91.40
3418;DHT22;1722;51.316;12.370;2022-11-15T07:40:57;9.10;91.30
3418;DHT22;1722;51.316;12.370;2022-11-15T07:43:27;9.10;91.20
3418;DHT22;1722;51.316;12.370;2022-11-15T07:45:56;9.20;91.20
3418;DHT22;1722;51.316;12.370;2022-11-15T07:48:23;9.20;90.90
3418;DHT22;1722;51.316;12.370;2022-11-15T07:50:51;9.30;90.90
3418;DHT22;1722;51.316;12.370;2022-11-15T07:53:18;9.30;90.60
3418;DHT22;1722;51.316;12.370;2022-11-15T07:55:46;9.40;90.70
3418;DHT22;1722;51.316;12.370;2022-11-15T07:58:13;9.40;90.60
3418;DHT22;1722;51.316;12.370;2022-11-15T08:00:42;9.40;90.50
3418;DHT22;1722;51.316;12.370;2022-11-15T08:03:11;9.40;90.50
3418;DHT22;1722;51.316;12.370;2022-11-15T08:05:41;9.40;90.40
3418;DHT22;1722;51.316;12.370;2022-11-15T08:08:10;9.50;90.40
3418;DHT22;1722;51.316;12.370;2022-11-15T08:10:38;9.50;90.60
3418;DHT22;1722;51.316;12.370;2022-11-15T08:13:07;9.50;90.30
3418;DHT22;1722;51.316;12.370;2022-11-15T08:15:36;9.60;90.50
3418;DHT22;1722;51.316;12.370;2022-11-15T08:18:08;9.60;90.20
3418;DHT22;1722;51.316;12.370;2022-11-15T08:20:37;9.60;90.20
3418;DHT22;1722;51.316;12.370;2022-11-15T08:23:05;9.60;90.30
3418;DHT22;1722;51.316;12.370;2022-11-15T08:25:34;9.70;90.50
3418;DHT22;1722;51.316;12.370;2022-11-15T08:28:04;9.70;90.30
3418;DHT22;1722;51.316;12.370;2022-11-15T08:30:35;9.70;90.30
3418;DHT22;1722;51.316;12.370;2022-11-15T08:33:05;9.80;90.10
3418;DHT22;1722;51.316;12.370;2022-11-15T08:35:33;9.80;90.20
3418;DHT22;1722;51.316;12.370;2022-11-15T08:38:00;9.80;90.10
3418;DHT22;1722;51.316;12.370;2022-11-15T08:40:28;9.80;90.10
3418;DHT22;1722;51.316;12.370;2022-11-15T08:42:55;9.90;89.80
3418;DHT22;1722;51.316;12.370;2022-11-15T08:45:25;9.90;90.30
3418;DHT22;1722;51.316;12.370;2022-11-15T08:47:52;9.90;90.80
3418;DHT22;1722;51.316;12.370;2022-11-15T08:50:21;10.00;90.70
3418;DHT22;1722;51.316;12.370;2022-11-15T08:52:49;10.00;90.70
3418;DHT22;1722;51.316;12.370;2022-11-15T08:55:16;10.10;90.70
3418;DHT22;1722;51.316;12.370;2022-11-15T08:57:44;10.10;90.20
3418;DHT22;1722;51.316;12.370;2022-11-15T09:00:13;10.20;90.10
3418;DHT22;1722;51.316;12.370;2022-11-15T09:02:41;10.20;90.00
3418;DHT22;1722;51.316;12.370;2022-11-15T09:05:08;10.30;89.60
3418;DHT22;1722;51.316;12.370;2022-11-15T09:07:37;10.30;89.10
3418;DHT22;1722;51.316;12.370;2022-11-15T09:10:05;10.30;89.40
3418;DHT22;1722;51.316;12.370;2022-11-15T09:12:33;10.30;89.10
3418;DHT22;1722;51.316;12.370;2022-11-15T09:15:01;10.40;88.70
3418;DHT22;1722;51.316;12.370;2022-11-15T09:17:28;10.40;88.40
3418;DHT22;1722;51.316;12.370;2022-11-15T09:19:56;10.50;88.60
3418;DHT22;1722;51.316;12.370;2022-11-15T09:22:23;10.50;88.40
3418;DHT22;1722;51.316;12.370;2022-11-15T09:24:52;10.60;88.00
3418;DHT22;1722;51.316;12.370;2022-11-15T09:27:20;10.60;88.00
3418;DHT22;1722;51.316;12.370;2022-11-15T09:29:47;10.70;87.70
3418;DHT22;1722;51.316;12.370;2022-11-15T09:32:15;10.80;88.00
3418;DHT22;1722;51.316;12.370;2022-11-15T09:34:42;10.80;87.50
3418;DHT22;1722;51.316;12.370;2022-11-15T09:37:10;10.90;87.50
3418;DHT22;1722;51.316;12.370;2022-11-15T09:39:38;10.90;87.30
3418;DHT22;1722;51.316;12.370;2022-11-15T09:42:32;10.90;87.50
3418;DHT22;1722;51.316;12.370;2022-11-15T09:45:11;11.00;87.40
3418;DHT22;1722;51.316;12.370;2022-11-15T09:47:55;11.00;86.80
3418;DHT22;1722;51.316;12.370;2022-11-15T09:50:32;11.20;86.70
3418;DHT22;1722;51.316;12.370;2022-11-15T09:53:01;11.20;86.40
3418;DHT22;1722;51.316;12.370;2022-11-15T09:55:35;11.20;86.50
3418;DHT22;1722;51.316;12.370;2022-11-15T09:58:15;11.20;86.70
3418;DHT22;1722;51.316;12.370;2022-11-15T10:00:46;11.30;87.40
3418;DHT22;1722;51.316;12.370;2022-11-15T10:03:23;11.30;87.10
3418;DHT22;1722;51.316;12.370;2022-11-15T10:05:55;11.30;87.00
3418;DHT22;1722;51.316;12.370;2022-11-15T10:08:40;11.30;87.10
3418;DHT22;1722;51.316;12.370;2022-11-15T10:11:17;11.40;87.20
3418;DHT22;1722;51.316;12.370;2022-11-15T10:13:48;11.50;87.40
3418;DHT22;1722;51.316;12.370;2022-11-15T10:19:30;11.60;86.70
3418;DHT22;1722;51.316;12.370;2022-11-15T10:22:15;11.70;86.60
3418;DHT22;1722;51.316;12.370;2022-11-15T10:24:46;11.80;85.80
3418;DHT22;1722;51.316;12.370;2022-11-15T10:27:15;12.00;85.70
3418;DHT22;1722;51.316;12.370;2022-11-15T10:29:48;12.10;85.30
3418;DHT22;1722;51.316;12.370;2022-11-15T10:32:18;12.20;85.20
3418;DHT22;1722;51.316;12.370;2022-11-15T10:34:47;12.30;84.30
3418;DHT22;1722;51.316;12.370;2022-11-15T10:37:27;12.40;83.90
3418;DHT22;1722;51.316;12.370;2022-11-15T10:40:03;12.50;83.50
3418;DHT22;1722;51.316;12.370;2022-11-15T10:42:31;12.60;83.60
3418;DHT22;1722;51.316;12.370;2022-11-15T10:44:59;12.60;83.80
3418;DHT22;1722;51.316;12.370;2022-11-15T10:47:28;12.70;83.20
3418;DHT22;1722;51.316;12.370;2022-11-15T10:49:59;12.80;82.90
3418;DHT22;1722;51.316;12.370;2022-11-15T10:52:28;12.90;82.40
3418;DHT22;1722;51.316;12.370;2022-11-15T10:54:59;12.90;82.10
3418;DHT22;1722;51.316;12.370;2022-11-15T10:57:30;13.00;82.70
3418;DHT22;1722;51.316;12.370;2022-11-15T11:00:01;13.10;81.50
3418;DHT22;1722;51.316;12.370;2022-11-15T11:02:32;13.20;81.30
3418;DHT22;1722;51.316;12.370;2022-11-15T11:05:01;13.40;80.90
3418;DHT22;1722;51.316;12.370;2022-11-15T11:07:33;13.50;80.10
3418;DHT22;1722;51.316;12.370;2022-11-15T11:10:04;13.70;80.10
3418;DHT22;1722;51.316;12.370;2022-11-15T11:12:33;13.80;80.30
3418;DHT22;1722;51.316;12.370;2022-11-15T11:15:10;13.90;79.70
3418;DHT22;1722;51.316;12.370;2022-11-15T11:17:53;14.00;80.10
3418;DHT22;1722;51.316;12.370;2022-11-15T11:20:25;14.10;80.20
3418;DHT22;1722;51.316;12.370;2022-11-15T11:23:03;14.30;79.40
3418;DHT22;1722;51.316;12.370;2022-11-15T11:25:34;14.40;79.50
3418;DHT22;1722;51.316;12.370;2022-11-15T11:28:16;14.50;79.20
3418;DHT22;1722;51.316;12.370;2022-11-15T11:30:57;14.70;79.50
3418;DHT22;1722;51.316;12.370;2022-11-15T11:33:31;14.70;79.50
3418;DHT22;1722;51.316;12.370;2022-11-15T11:36:07;14.90;77.90
3418;DHT22;1722;51.316;12.370;2022-11-15T11:38:44;15.00;78.50
3418;DHT22;1722;51.316;12.370;2022-11-15T11:41:36;15.00;78.40
3418;DHT22;1722;51.316;12.370;2022-11-15T11:44:16;15.10;78.10
3418;DHT22;1722;51.316;12.370;2022-11-15T11:46:54;15.20;77.80
3418;DHT22;1722;51.316;12.370;2022-11-15T11:49:28;15.30;77.50
3418;DHT22;1722;51.316;12.370;2022-11-15T11:52:02;15.40;77.30
3418;DHT22;1722;51.316;12.370;2022-11-15T11:54:37;15.40;77.40
3418;DHT22;1722;51.316;12.370;2022-11-15T11:57:10;15.50;77.10
3418;DHT22;1722;51.316;12.370;2022-11-15T11:59:46;15.50;77.00
3418;DHT22;1722;51.316;12.370;2022-11-15T12:02:28;15.60;77.20
3418;DHT22;1722;51.316;12.370;2022-11-15T12:05:03;15.60;77.20
3418;DHT22;1722;51.316;12.370;2022-11-15T12:07:34;15.70;77.20
3418;DHT22;1722;51.316;12.370;2022-11-15T12:10:05;15.70;77.00
3418;DHT22;1722;51.316;12.370;2022-11-15T12:12:47;15.70;77.20
3418;DHT22;1722;51.316;12.370;2022-11-15T12:15:19;16.00;76.00
3418;DHT22;1722;51.316;12.370;2022-11-15T12:17:49;16.00;75.90
3418;DHT22;1722;51.316;12.370;2022-11-15T12:20:19;16.20;76.00
3418;DHT22;1722;51.316;12.370;2022-11-15T12:22:52;16.20;76.00
3418;DHT22;1722;51.316;12.370;2022-11-15T12:25:24;16.40;75.10
3418;DHT22;1722;51.316;12.370;2022-11-15T12:27:57;16.50;75.30
3418;DHT22;1722;51.316;12.370;2022-11-15T12:30:37;16.50;75.00
3418;DHT22;1722;51.316;12.370;2022-11-15T12:33:33;16.50;75.10
3418;DHT22;1722;51.316;12.370;2022-11-15T12:36:03;16.50;75.10
3418;DHT22;1722;51.316;12.370;2022-11-15T12:38:54;16.50;75.50
3418;DHT22;1722;51.316;12.370;2022-11-15T12:41:23;16.50;75.70
3418;DHT22;1722;51.316;12.370;2022-11-15T12:43:51;16.50;76.30
3418;DHT22;1722;51.316;12.370;2022-11-15T12:49:48;16.70;75.70
3418;DHT22;1722;51.316;12.370;2022-11-15T12:52:16;16.70;76.20
3418;DHT22;1722;51.316;12.370;2022-11-15T12:54:55;16.80;74.30
3418;DHT22;1722;51.316;12.370;2022-11-15T12:57:32;16.90;74.80
3418;DHT22;1722;51.316;12.370;2022-11-15T13:00:01;17.00;73.60
3418;DHT22;1722;51.316;12.370;2022-11-15T13:02:31;17.10;74.30
3418;DHT22;1722;51.316;12.370;2022-11-15T13:08:06;17.30;73.80
3418;DHT22;1722;51.316;12.370;2022-11-15T13:10:34;17.50;73.70
3418;DHT22;1722;51.316;12.370;2022-11-15T13:13:03;17.40;73.60
3418;DHT22;1722;51.316;12.370;2022-11-15T13:18:37;17.60;72.60
3418;DHT22;1722;51.316;12.370;2022-11-15T13:21:19;17.80;69.60
3418;DHT22;1722;51.316;12.370;2022-11-15T13:24:12;17.80;71.60
3418;DHT22;1722;51.316;12.370;2022-11-15T13:26:40;17.80;71.20
3418;DHT22;1722;51.316;12.370;2022-11-15T13:29:16;17.80;72.00
3418;DHT22;1722;51.316;12.370;2022-11-15T13:31:45;17.80;72.40
3418;DHT22;1722;51.316;12.370;2022-11-15T13:34:26;17.80;72.10
3418;DHT22;1722;51.316;12.370;2022-11-15T13:36:54;17.80;71.90
3418;DHT22;1722;51.316;12.370;2022-11-15T13:39:28;17.90;72.10
3418;DHT22;1722;51.316;12.370;2022-11-15T13:41:56;17.90;72.40
3418;DHT22;1722;51.316;12.370;2022-11-15T13:44:26;17.90;72.20
3418;DHT22;1722;51.316;12.370;2022-11-15T13:47:12;17.90;71.50
3418;DHT22;1722;51.316;12.370;2022-11-15T13:49:40;17.90;71.70
3418;DHT22;1722;51.316;12.370;2022-11-15T13:52:11;17.90;70.60
3418;DHT22;1722;51.316;12.370;2022-11-15T13:54:44;18.00;68.30
3418;DHT22;1722;51.316;12.370;2022-11-15T13:57:16;18.00;70.90
3418;DHT22;1722;51.316;12.370;2022-11-15T13:59:47;18.00;71.00
3418;DHT22;1722;51.316;12.370;2022-11-15T14:02:17;18.00;71.20
3418;DHT22;1722;51.316;12.370;2022-11-15T14:04:48;17.90;71.20
3418;DHT22;1722;51.316;12.370;2022-11-15T14:07:18;18.00;69.80
3418;DHT22;1722;51.316;12.370;2022-11-15T14:09:48;17.90;70.60
3418;DHT22;1722;51.316;12.370;2022-11-15T14:12:28;17.90;70.80
3418;DHT22;1722;51.316;12.370;2022-11-15T14:14:57;17.70;71.50
3418;DHT22;1722;51.316;12.370;2022-11-15T14:17:36;17.70;71.30
3418;DHT22;1722;51.316;12.370;2022-11-15T14:20:24;17.70;71.70
3418;DHT22;1722;51.316;12.370;2022-11-15T14:22:54;17.60;71.70
3418;DHT22;1722;51.316;12.370;2022-11-15T14:25:24;17.50;71.80
3418;DHT22;1722;51.316;12.370;2022-11-15T14:28:14;17.50;72.20
3418;DHT22;1722;51.316;12.370;2022-11-15T14:30:44;17.40;72.10
3418;DHT22;1722;51.316;12.370;2022-11-15T14:33:22;17.30;72.30
3418;DHT22;1722;51.316;12.370;2022-11-15T14:35:50;17.30;73.20
3418;DHT22;1722;51.316;12.370;2022-11-15T14:38:18;17.20;72.70
3418;DHT22;1722;51.316;12.370;2022-11-15T14:40:48;17.20;73.20
3418;DHT22;1722;51.316;12.370;2022-11-15T14:43:16;17.10;72.50
3418;DHT22;1722;51.316;12.370;2022-11-15T14:45:43;17.10;73.20
3418;DHT22;1722;51.316;12.370;2022-11-15T14:48:11;17.00;73.30
3418;DHT22;1722;51.316;12.370;2022-11-15T14:50:39;17.00;73.70
3418;DHT22;1722;51.316;12.370;2022-11-15T14:53:10;17.00;73.90
3418;DHT22;1722;51.316;12.370;2022-11-15T14:55:38;16.90;73.50
3418;DHT22;1722;51.316;12.370;2022-11-15T14:58:07;16.90;73.90
3418;DHT22;1722;51.316;12.370;2022-11-15T15:00:35;16.80;73.80
3418;DHT22;1722;51.316;12.370;2022-11-15T15:03:04;16.80;74.00
3418;DHT22;1722;51.316;12.370;2022-11-15T15:05:34;16.70;74.20
3418;DHT22;1722;51.316;12.370;2022-11-15T15:08:02;16.60;74.30
3418;DHT22;1722;51.316;12.370;2022-11-15T15:10:32;16.60;74.60
3418;DHT22;1722;51.316;12.370;2022-11-15T15:12:59;16.50;74.80
3418;DHT22;1722;51.316;12.370;2022-11-15T15:15:32;16.40;76.00
3418;DHT22;1722;51.316;12.370;2022-11-15T15:18:00;16.30;75.50
3418;DHT22;1722;51.316;12.370;2022-11-15T15:20:27;16.30;75.80
3418;DHT22;1722;51.316;12.370;2022-11-15T15:22:56;16.20;75.80
3418;DHT22;1722;51.316;12.370;2022-11-15T15:25:27;16.10;76.00
3418;DHT22;1722;51.316;12.370;2022-11-15T15:27:56;16.10;76.20
3418;DHT22;1722;51.316;12.370;2022-11-15T15:30:24;16.00;76.50
3418;DHT22;1722;51.316;12.370;2022-11-15T15:32:53;16.00;76.60
3418;DHT22;1722;51.316;12.370;2022-11-15T15:35:21;15.90;76.60
3418;DHT22;1722;51.316;12.370;2022-11-15T15:37:50;15.90;76.60
3418;DHT22;1722;51.316;12.370;2022-11-15T15:40:19;15.80;76.80
3418;DHT22;1722;51.316;12.370;2022-11-15T15:42:47;15.80;76.80
3418;DHT22;1722;51.316;12.370;2022-11-15T15:45:15;15.70;77.10
3418;DHT22;1722;51.316;12.370;2022-11-15T15:47:43;15.70;77.10
3418;DHT22;1722;51.316;12.370;2022-11-15T15:50:19;15.70;77.10
3418;DHT22;1722;51.316;12.370;2022-11-15T15:52:47;15.60;77.20
3418;DHT22;1722;51.316;12.370;2022-11-15T15:55:15;15.60;77.50
3418;DHT22;1722;51.316;12.370;2022-11-15T15:57:43;15.60;77.40
3418;DHT22;1722;51.316;12.370;2022-11-15T16:00:11;15.50;77.30
3418;DHT22;1722;51.316;12.370;2022-11-15T16:02:39;15.50;77.40
3418;DHT22;1722;51.316;12.370;2022-11-15T16:05:07;15.50;77.40
3418;DHT22;1722;51.316;12.370;2022-11-15T16:07:36;15.40;77.60
3418;DHT22;1722;51.316;12.370;2022-11-15T16:10:17;15.40;77.60
3418;DHT22;1722;51.316;12.370;2022-11-15T16:12:45;15.40;77.60
3418;DHT22;1722;51.316;12.370;2022-11-15T16:15:12;15.30;77.90
3418;DHT22;1722;51.316;12.370;2022-11-15T16:17:44;15.30;78.00
3418;DHT22;1722;51.316;12.370;2022-11-15T16:20:23;15.30;78.00
3418;DHT22;1722;51.316;12.370;2022-11-15T16:22:52;15.20;78.10
3418;DHT22;1722;51.316;12.370;2022-11-15T16:25:19;15.20;78.30
3418;DHT22;1722;51.316;12.370;2022-11-15T16:27:47;15.10;78.40
3418;DHT22;1722;51.316;12.370;2022-11-15T16:30:17;15.10;79.00